createdAt,value
2017-10-13T00:00:44.732Z,15.52
2017-10-13T00:01:44.639Z,15.23
2017-10-13T00:02:44.557Z,15.15
2017-10-13T00:03:44.482Z,15.15
2017-10-13T00:04:44.396Z,15.05
2017-10-13T00:05:44.312Z,14.99
2017-10-13T00:06:44.231Z,15.27
2017-10-13T00:07:44.150Z,15.42
2017-10-13T00:08:44.093Z,15.42
2017-10-13T00:09:44.022Z,15.49
2017-10-13T00:10:43.922Z,15.54
2017-10-13T00:11:43.832Z,15.59
2017-10-13T00:12:43.750Z,15.49
2017-10-13T00:13:43.656Z,15.56
2017-10-13T00:14:43.577Z,15.46
2017-10-13T00:15:43.525Z,15.59
2017-10-13T00:16:43.409Z,15.51
2017-10-13T00:17:43.327Z,15.48
2017-10-13T00:18:43.245Z,15.35
2017-10-13T00:19:43.163Z,15.36
2017-10-13T00:20:43.080Z,15.42
2017-10-13T00:21:42.998Z,15.54
2017-10-13T00:22:42.924Z,15.56
2017-10-13T00:23:42.839Z,15.45
2017-10-13T00:24:42.760Z,15.33
2017-10-13T00:25:42.675Z,15.41
2017-10-13T00:26:42.594Z,15.43
2017-10-13T00:27:42.512Z,15.36
2017-10-13T00:28:42.435Z,15.38
2017-10-13T00:29:42.353Z,15.51
2017-10-13T00:30:42.277Z,15.51
2017-10-13T00:31:42.195Z,15.42
2017-10-13T00:32:42.102Z,15.51
2017-10-13T00:33:42.015Z,15.46
2017-10-13T00:34:41.944Z,15.46
2017-10-13T00:35:41.856Z,15.51
2017-10-13T00:36:41.770Z,15.46
2017-10-13T00:37:41.689Z,15.33
2017-10-13T00:38:41.608Z,15.49
2017-10-13T00:39:41.526Z,15.51
2017-10-13T00:40:41.443Z,15.51
2017-10-13T00:41:41.382Z,15.56
2017-10-13T00:42:41.287Z,15.56
2017-10-13T00:43:41.196Z,15.51
2017-10-13T00:44:41.117Z,15.31
2017-10-13T00:45:41.062Z,15.38
2017-10-13T00:46:40.955Z,15.38
2017-10-13T00:47:40.875Z,15.41
2017-10-13T00:48:40.789Z,15.51
2017-10-13T00:49:40.711Z,15.39
2017-10-13T00:50:40.627Z,15.38
2017-10-13T00:51:40.542Z,15.27
2017-10-13T00:52:40.463Z,15.13
2017-10-13T00:53:40.385Z,15.19
2017-10-13T00:54:40.297Z,15.08
2017-10-13T00:55:40.214Z,15.09
2017-10-13T00:56:40.161Z,15.35
2017-10-13T00:57:40.064Z,15.28
2017-10-13T00:58:39.968Z,15.35
2017-10-13T00:59:39.889Z,15.38
2017-10-13T01:00:39.811Z,15.35
2017-10-13T01:01:39.725Z,15.05
2017-10-13T01:02:39.642Z,14.61
2017-10-13T01:03:39.561Z,14.78
2017-10-13T01:04:39.495Z,14.88
2017-10-13T01:05:39.398Z,15.02
2017-10-13T01:06:39.318Z,14.98
2017-10-13T01:07:39.241Z,15.08
2017-10-13T01:08:39.155Z,15.06
2017-10-13T01:09:39.070Z,15.20
2017-10-13T01:10:38.985Z,15.30
2017-10-13T01:11:38.906Z,15.23
2017-10-13T01:12:38.828Z,15.26
2017-10-13T01:13:38.740Z,15.30
2017-10-13T01:14:38.664Z,15.36
2017-10-13T01:15:38.581Z,15.26
2017-10-13T01:16:38.495Z,15.19
2017-10-13T01:17:38.411Z,15.13
2017-10-13T01:18:38.371Z,15.08
2017-10-13T01:19:38.253Z,15.06
2017-10-13T01:20:38.171Z,15.12
2017-10-13T01:21:38.082Z,15.09
2017-10-13T01:22:38.006Z,15.13
2017-10-13T01:23:37.918Z,15.05
2017-10-13T01:24:37.840Z,15.06
2017-10-13T01:25:37.760Z,15.06
2017-10-13T01:26:37.677Z,15.06
2017-10-13T01:27:37.592Z,15.06
2017-10-13T01:28:37.508Z,15.17
2017-10-13T01:29:37.427Z,15.08
2017-10-13T01:30:37.352Z,15.17
2017-10-13T01:31:37.293Z,15.26
2017-10-13T01:32:37.185Z,15.26
2017-10-13T01:33:37.101Z,15.26
2017-10-13T01:34:37.019Z,15.31
2017-10-13T01:35:36.938Z,15.15
2017-10-13T01:36:36.857Z,15.12
2017-10-13T01:37:36.777Z,15.08
2017-10-13T01:38:36.691Z,15.23
2017-10-13T01:39:36.607Z,15.21
2017-10-13T01:40:36.525Z,15.11
2017-10-13T01:41:36.442Z,15.12
2017-10-13T01:42:36.362Z,15.24
2017-10-13T01:43:36.285Z,15.06
2017-10-13T01:44:36.198Z,15.03
2017-10-13T01:45:36.115Z,15.11
2017-10-13T01:46:36.039Z,15.15
2017-10-13T01:47:35.967Z,15.11
2017-10-13T01:48:35.869Z,15.17
2017-10-13T01:49:35.792Z,15.13
2017-10-13T01:50:35.714Z,15.30
2017-10-13T01:51:35.630Z,15.12
2017-10-13T01:52:35.547Z,15.24
2017-10-13T01:53:35.458Z,15.02
2017-10-13T01:54:35.379Z,14.90
2017-10-13T01:55:35.305Z,14.99
2017-10-13T01:56:35.221Z,15.01
2017-10-13T01:57:35.130Z,15.08
2017-10-13T01:58:35.053Z,15.09
2017-10-13T01:59:34.981Z,15.03
2017-10-13T02:00:34.886Z,15.09
2017-10-13T02:01:34.810Z,14.98
2017-10-13T02:02:34.722Z,15.06
2017-10-13T02:03:34.643Z,15.06
2017-10-13T02:04:34.560Z,15.05
2017-10-13T02:05:34.478Z,15.13
2017-10-13T02:06:34.421Z,15.17
2017-10-13T02:07:34.312Z,15.12
2017-10-13T02:08:34.228Z,15.06
2017-10-13T02:09:34.150Z,15.12
2017-10-13T02:10:34.081Z,15.06
2017-10-13T02:11:33.985Z,15.01
2017-10-13T02:12:33.898Z,14.95
2017-10-13T02:13:33.834Z,14.94
2017-10-13T02:14:33.739Z,15.01
2017-10-13T02:15:33.656Z,15.05
2017-10-13T02:16:33.570Z,14.99
2017-10-13T02:17:33.495Z,14.94
2017-10-13T02:18:33.415Z,15.02
2017-10-13T02:19:33.324Z,15.01
2017-10-13T02:20:33.247Z,14.91
2017-10-13T02:21:33.183Z,14.98
2017-10-13T02:22:33.086Z,14.99
2017-10-13T02:23:33.001Z,15.06
2017-10-13T02:24:32.918Z,15.05
2017-10-13T02:25:32.835Z,15.03
2017-10-13T02:26:32.754Z,14.99
2017-10-13T02:27:32.675Z,14.90
2017-10-13T02:28:32.589Z,14.87
2017-10-13T02:29:32.511Z,14.90
2017-10-13T02:30:32.427Z,14.54
2017-10-13T02:31:32.342Z,14.28
2017-10-13T02:32:32.266Z,14.10
2017-10-13T02:33:32.176Z,14.07
2017-10-13T02:34:32.100Z,14.21
2017-10-13T02:35:32.011Z,14.31
2017-10-13T02:36:31.928Z,14.47
2017-10-13T02:37:31.854Z,14.53
2017-10-13T02:38:31.765Z,14.65
2017-10-13T02:39:31.678Z,14.75
2017-10-13T02:40:31.595Z,14.69
2017-10-13T02:41:31.514Z,14.83
2017-10-13T02:42:31.436Z,14.80
2017-10-13T02:43:31.350Z,14.80
2017-10-13T02:44:31.272Z,14.78
2017-10-13T02:45:31.180Z,14.74
2017-10-13T02:46:31.106Z,14.71
2017-10-13T02:47:31.021Z,14.71
2017-10-13T02:48:30.940Z,14.68
2017-10-13T02:49:30.858Z,14.80
2017-10-13T02:50:30.772Z,14.80
2017-10-13T02:51:30.696Z,14.81
2017-10-13T02:52:30.611Z,14.68
2017-10-13T02:53:30.531Z,14.62
2017-10-13T02:54:30.446Z,14.74
2017-10-13T02:55:30.382Z,14.81
2017-10-13T02:56:30.288Z,14.78
2017-10-13T02:57:30.197Z,14.81
2017-10-13T02:58:30.121Z,14.72
2017-10-13T02:59:30.037Z,14.80
2017-10-13T03:00:29.953Z,14.94
2017-10-13T03:01:29.884Z,14.72
2017-10-13T03:02:29.780Z,14.75
2017-10-13T03:03:29.706Z,14.75
2017-10-13T03:04:29.623Z,14.74
2017-10-13T03:05:29.544Z,14.74
2017-10-13T03:06:29.461Z,14.64
2017-10-13T03:07:29.374Z,14.62
2017-10-13T03:08:29.289Z,14.64
2017-10-13T03:09:29.215Z,14.67
2017-10-13T03:10:29.131Z,14.84
2017-10-13T03:11:29.100Z,14.83
2017-10-13T03:12:28.973Z,14.83
2017-10-13T03:13:28.895Z,14.86
2017-10-13T03:14:28.802Z,14.90
2017-10-13T03:15:28.713Z,14.84
2017-10-13T03:16:28.636Z,14.84
2017-10-13T03:17:28.551Z,14.83
2017-10-13T03:18:28.468Z,14.88
2017-10-13T03:19:28.390Z,14.94
2017-10-13T03:20:28.305Z,14.94
2017-10-13T03:21:28.228Z,14.95
2017-10-13T03:22:28.140Z,14.94
2017-10-13T03:23:28.058Z,14.98
2017-10-13T03:24:27.979Z,14.91
2017-10-13T03:25:27.901Z,14.90
2017-10-13T03:26:27.815Z,14.71
2017-10-13T03:27:27.728Z,14.86
2017-10-13T03:28:27.651Z,14.81
2017-10-13T03:29:27.566Z,14.84
2017-10-13T03:30:27.480Z,14.81
2017-10-13T03:31:27.400Z,14.95
2017-10-13T03:32:27.319Z,14.91
2017-10-13T03:33:27.238Z,14.81
2017-10-13T03:34:27.159Z,14.72
2017-10-13T03:35:27.082Z,14.68
2017-10-13T03:36:26.993Z,14.74
2017-10-13T03:37:26.910Z,14.80
2017-10-13T03:38:26.836Z,14.65
2017-10-13T03:39:26.745Z,14.72
2017-10-13T03:40:26.671Z,14.81
2017-10-13T03:41:26.601Z,14.78
2017-10-13T03:42:26.498Z,14.81
2017-10-13T03:43:26.415Z,14.61
2017-10-13T03:44:26.334Z,14.74
2017-10-13T03:45:26.278Z,14.75
2017-10-13T03:46:26.172Z,14.80
2017-10-13T03:47:26.093Z,14.80
2017-10-13T03:48:26.011Z,14.81
2017-10-13T03:49:25.919Z,14.81
2017-10-13T03:50:26.870Z,14.94
2017-10-13T03:51:25.765Z,14.93
2017-10-13T03:52:25.676Z,14.93
2017-10-13T03:53:25.603Z,14.94
2017-10-13T03:54:25.522Z,14.94
2017-10-13T03:55:25.428Z,14.90
2017-10-13T03:56:25.358Z,14.91
2017-10-13T03:57:25.289Z,14.78
2017-10-13T03:58:25.185Z,14.94
2017-10-13T03:59:25.100Z,14.95
2017-10-13T04:00:25.037Z,14.81
2017-10-13T04:01:24.938Z,14.78
2017-10-13T04:02:24.859Z,14.75
2017-10-13T04:03:24.773Z,14.75
2017-10-13T04:04:24.733Z,14.78
2017-10-13T04:05:24.606Z,14.87
2017-10-13T04:06:24.535Z,14.93
2017-10-13T04:07:24.446Z,14.78
2017-10-13T04:08:24.368Z,14.71
2017-10-13T04:09:24.292Z,14.84
2017-10-13T04:10:24.196Z,14.72
2017-10-13T04:11:24.114Z,14.44
2017-10-13T04:12:24.045Z,14.52
2017-10-13T04:13:23.984Z,14.62
2017-10-13T04:14:23.876Z,14.72
2017-10-13T04:15:23.790Z,14.81
2017-10-13T04:16:23.711Z,14.78
2017-10-13T04:17:23.639Z,14.80
2017-10-13T04:18:23.543Z,14.71
2017-10-13T04:19:23.501Z,14.74
2017-10-13T04:20:23.395Z,14.78
2017-10-13T04:21:23.301Z,14.84
2017-10-13T04:22:23.210Z,14.84
2017-10-13T04:23:23.127Z,14.94
2017-10-13T04:24:23.051Z,14.88
2017-10-13T04:25:23.001Z,14.80
2017-10-13T04:26:22.889Z,14.78
2017-10-13T04:27:22.826Z,14.88
2017-10-13T04:28:22.721Z,14.98
2017-10-13T04:29:22.632Z,14.91
2017-10-13T04:30:22.550Z,14.98
2017-10-13T04:31:22.470Z,14.88
2017-10-13T04:32:22.402Z,14.87
2017-10-13T04:33:22.307Z,14.81
2017-10-13T04:34:22.240Z,14.75
2017-10-13T04:35:22.148Z,14.78
2017-10-13T04:36:22.058Z,14.83
2017-10-13T04:37:21.984Z,14.78
2017-10-13T04:38:21.909Z,14.81
2017-10-13T04:39:21.820Z,14.95
2017-10-13T04:40:21.735Z,14.80
2017-10-13T04:41:21.650Z,14.84
2017-10-13T04:42:21.573Z,14.80
2017-10-13T04:43:21.490Z,14.94
2017-10-13T04:44:21.410Z,14.88
2017-10-13T04:45:21.341Z,14.84
2017-10-13T04:46:21.242Z,14.83
2017-10-13T04:47:21.170Z,14.74
2017-10-13T04:48:21.098Z,14.78
2017-10-13T04:49:21.005Z,14.65
2017-10-13T04:50:20.919Z,14.32
2017-10-13T04:51:20.843Z,14.50
2017-10-13T04:52:20.748Z,14.46
2017-10-13T04:53:20.672Z,14.57
2017-10-13T04:54:20.602Z,14.62
2017-10-13T04:55:20.503Z,14.53
2017-10-13T04:56:20.423Z,14.60
2017-10-13T04:57:20.338Z,14.72
2017-10-13T04:58:20.260Z,14.78
2017-10-13T04:59:20.176Z,14.78
2017-10-13T05:00:20.101Z,14.75
2017-10-13T05:01:20.011Z,14.78
2017-10-13T05:02:19.927Z,14.84
2017-10-13T05:03:19.845Z,14.75
2017-10-13T05:04:19.764Z,14.81
2017-10-13T05:05:19.678Z,14.56
2017-10-13T05:06:19.622Z,14.60
2017-10-13T05:07:19.516Z,14.67
2017-10-13T05:08:19.429Z,14.81
2017-10-13T05:09:19.357Z,14.52
2017-10-13T05:10:19.272Z,14.50
2017-10-13T05:11:19.184Z,14.62
2017-10-13T05:12:19.108Z,14.64
2017-10-13T05:13:19.018Z,14.68
2017-10-13T05:14:18.941Z,14.72
2017-10-13T05:15:18.858Z,14.68
2017-10-13T05:16:18.775Z,14.84
2017-10-13T05:17:18.694Z,14.75
2017-10-13T05:18:18.614Z,14.64
2017-10-13T05:19:18.525Z,14.64
2017-10-13T05:20:18.473Z,14.52
2017-10-13T05:21:18.377Z,14.61
2017-10-13T05:22:18.283Z,14.72
2017-10-13T05:23:18.199Z,14.67
2017-10-13T05:24:18.122Z,14.80
2017-10-13T05:25:18.043Z,14.75
2017-10-13T05:26:17.957Z,14.78
2017-10-13T05:27:17.869Z,14.68
2017-10-13T05:28:17.785Z,14.60
2017-10-13T05:29:17.705Z,14.53
2017-10-13T05:30:17.625Z,14.46
2017-10-13T05:31:17.560Z,14.60
2017-10-13T05:32:17.460Z,14.64
2017-10-13T05:33:17.376Z,14.65
2017-10-13T05:34:17.295Z,14.64
2017-10-13T05:35:17.216Z,14.69
2017-10-13T05:36:17.131Z,14.72
2017-10-13T05:37:17.059Z,14.71
2017-10-13T05:38:16.963Z,14.68
2017-10-13T05:39:16.896Z,14.75
2017-10-13T05:40:16.798Z,14.71
2017-10-13T05:41:16.721Z,14.74
2017-10-13T05:42:16.637Z,14.29
2017-10-13T05:43:16.557Z,14.46
2017-10-13T05:44:16.477Z,14.46
2017-10-13T05:45:16.390Z,14.50
2017-10-13T05:46:16.307Z,14.61
2017-10-13T05:47:16.232Z,14.61
2017-10-13T05:48:16.146Z,14.61
2017-10-13T05:49:16.069Z,14.60
2017-10-13T05:50:15.982Z,14.68
2017-10-13T05:51:15.898Z,14.75
2017-10-13T05:52:15.816Z,14.56
2017-10-13T05:53:15.739Z,14.50
2017-10-13T05:54:15.657Z,14.32
2017-10-13T05:55:15.596Z,14.39
2017-10-13T05:56:15.484Z,14.54
2017-10-13T05:57:15.401Z,14.54
2017-10-13T05:58:15.320Z,14.50
2017-10-13T05:59:15.244Z,14.54
2017-10-13T06:00:15.156Z,14.65
2017-10-13T06:01:15.076Z,14.71
2017-10-13T06:02:14.991Z,14.74
2017-10-13T06:03:14.928Z,14.74
2017-10-13T06:04:14.829Z,14.75
2017-10-13T06:05:14.745Z,14.83
2017-10-13T06:06:14.665Z,14.78
2017-10-13T06:07:14.586Z,14.81
2017-10-13T06:08:14.500Z,14.80
2017-10-13T06:09:14.443Z,14.93
2017-10-13T06:10:14.333Z,14.86
2017-10-13T06:11:14.253Z,14.68
2017-10-13T06:12:14.169Z,14.75
2017-10-13T06:13:14.100Z,14.81
2017-10-13T06:14:14.005Z,14.81
2017-10-13T06:15:13.924Z,14.83
2017-10-13T06:16:13.843Z,14.75
2017-10-13T06:17:13.761Z,14.74
2017-10-13T06:18:13.681Z,14.64
2017-10-13T06:19:13.598Z,14.69
2017-10-13T06:20:13.511Z,14.49
2017-10-13T06:21:13.431Z,14.38
2017-10-13T06:22:13.348Z,14.44
2017-10-13T06:23:13.266Z,14.56
2017-10-13T06:24:13.183Z,14.61
2017-10-13T06:25:13.105Z,14.65
2017-10-13T06:26:13.020Z,14.69
2017-10-13T06:27:12.933Z,14.35
2017-10-13T06:28:12.860Z,14.54
2017-10-13T06:29:12.771Z,14.74
2017-10-13T06:30:12.691Z,14.81
2017-10-13T06:31:12.608Z,14.86
2017-10-13T06:32:12.539Z,14.94
2017-10-13T06:33:12.447Z,14.78
2017-10-13T06:34:12.363Z,14.94
2017-10-13T06:35:12.280Z,14.91
2017-10-13T06:36:12.205Z,14.54
2017-10-13T06:37:12.134Z,14.57
2017-10-13T06:38:12.037Z,14.78
2017-10-13T06:39:11.959Z,14.81
2017-10-13T06:40:11.876Z,14.75
2017-10-13T06:41:11.792Z,14.81
2017-10-13T06:42:11.703Z,14.91
2017-10-13T06:43:11.630Z,14.94
2017-10-13T06:44:11.550Z,14.99
2017-10-13T06:45:11.461Z,14.98
2017-10-13T06:46:11.378Z,15.08
2017-10-13T06:47:11.311Z,15.01
2017-10-13T06:48:11.215Z,15.01
2017-10-13T06:49:11.130Z,14.94
2017-10-13T06:50:11.057Z,14.94
2017-10-13T06:51:10.968Z,15.08
2017-10-13T06:52:10.899Z,15.03
2017-10-13T06:53:10.812Z,15.01
2017-10-13T06:54:10.725Z,15.03
2017-10-13T06:55:10.640Z,14.99
2017-10-13T06:56:10.558Z,14.83
2017-10-13T06:57:10.479Z,14.91
2017-10-13T06:58:10.397Z,14.68
2017-10-13T06:59:10.313Z,14.75
2017-10-13T07:00:10.235Z,14.88
2017-10-13T07:01:10.165Z,14.95
2017-10-13T07:02:10.073Z,15.01
2017-10-13T07:03:09.982Z,15.02
2017-10-13T07:04:09.907Z,15.08
2017-10-13T07:05:09.822Z,15.05
2017-10-13T07:06:09.741Z,15.03
2017-10-13T07:07:09.656Z,15.02
2017-10-13T07:08:09.572Z,15.06
2017-10-13T07:09:09.508Z,15.15
2017-10-13T07:10:09.414Z,15.11
2017-10-13T07:11:09.332Z,14.94
2017-10-13T07:12:09.248Z,15.09
2017-10-13T07:13:09.169Z,15.15
2017-10-13T07:14:09.087Z,15.27
2017-10-13T07:15:09.014Z,15.35
2017-10-13T07:16:08.932Z,15.24
2017-10-13T07:17:08.839Z,15.39
2017-10-13T07:18:08.752Z,15.38
2017-10-13T07:19:08.674Z,15.33
2017-10-13T07:20:08.593Z,15.52
2017-10-13T07:21:08.512Z,15.52
2017-10-13T07:22:08.429Z,15.60
2017-10-13T07:23:08.348Z,15.46
2017-10-13T07:24:08.270Z,15.39
2017-10-13T07:25:08.204Z,15.36
2017-10-13T07:26:08.105Z,15.28
2017-10-13T07:27:08.021Z,15.36
2017-10-13T07:28:07.950Z,15.41
2017-10-13T07:29:07.887Z,15.54
2017-10-13T07:30:07.782Z,15.54
2017-10-13T07:31:07.701Z,15.79
2017-10-13T07:32:07.624Z,15.85
2017-10-13T07:33:07.541Z,15.78
2017-10-13T07:34:07.466Z,15.94
2017-10-13T07:35:07.383Z,16.14
2017-10-13T07:36:07.290Z,16.27
2017-10-13T07:37:07.222Z,16.45
2017-10-13T07:38:07.142Z,16.60
2017-10-13T07:39:07.057Z,16.63
2017-10-13T07:40:06.978Z,16.77
2017-10-13T07:41:06.898Z,16.96
2017-10-13T07:42:06.821Z,17.14
2017-10-13T07:43:06.754Z,17.17
2017-10-13T07:44:06.662Z,17.38
2017-10-13T07:45:06.597Z,17.35
2017-10-13T07:46:06.519Z,17.50
2017-10-13T07:47:06.427Z,17.62
2017-10-13T07:48:06.348Z,17.67
2017-10-13T07:49:06.273Z,17.81
2017-10-13T07:50:06.193Z,17.97
2017-10-13T07:51:06.144Z,18.28
2017-10-13T07:52:06.045Z,18.46
2017-10-13T07:53:05.965Z,18.54
2017-10-13T07:54:05.894Z,18.68
2017-10-13T07:55:05.806Z,18.90
2017-10-13T07:56:05.738Z,19.14
2017-10-13T07:57:05.666Z,19.17
2017-10-13T07:58:05.587Z,19.42
2017-10-13T07:59:05.518Z,19.69
2017-10-13T08:00:05.435Z,19.98
2017-10-13T08:01:05.365Z,20.21
2017-10-13T08:02:05.291Z,20.09
2017-10-13T08:03:05.212Z,20.69
2017-10-13T08:04:05.144Z,20.89
2017-10-13T08:05:05.071Z,21.13
2017-10-13T08:06:05.000Z,21.29
2017-10-13T08:07:04.932Z,21.32
2017-10-13T08:08:04.860Z,21.57
2017-10-13T08:09:04.779Z,21.81
2017-10-13T08:10:04.716Z,21.92
2017-10-13T08:11:04.644Z,21.97
2017-10-13T08:12:04.564Z,22.10
2017-10-13T08:13:04.494Z,22.32
2017-10-13T08:14:04.436Z,22.49
2017-10-13T08:15:04.350Z,22.59
2017-10-13T08:16:04.285Z,22.80
2017-10-13T08:17:04.212Z,22.97
2017-10-13T08:18:04.139Z,23.04
2017-10-13T08:19:04.070Z,23.08
2017-10-13T08:20:04.813Z,22.83
2017-10-13T08:21:03.936Z,23.04
2017-10-13T08:22:03.869Z,23.20
2017-10-13T08:23:03.791Z,23.15
2017-10-13T08:24:03.724Z,23.27
2017-10-13T08:25:04.321Z,22.87
2017-10-13T08:26:03.585Z,23.23
2017-10-13T08:27:03.515Z,23.67
2017-10-13T08:28:03.444Z,23.20
2017-10-13T08:29:03.370Z,23.04
2017-10-13T08:30:03.300Z,22.57
2017-10-13T08:31:03.233Z,22.16
2017-10-13T08:32:03.154Z,23.01
2017-10-13T08:33:03.084Z,23.53
2017-10-13T08:34:03.016Z,23.58
2017-10-13T08:35:02.941Z,23.95
2017-10-13T08:36:02.885Z,24.23
2017-10-13T08:37:02.797Z,24.50
2017-10-13T08:38:02.732Z,24.63
2017-10-13T08:39:02.666Z,24.83
2017-10-13T08:40:02.586Z,24.88
2017-10-13T08:41:02.518Z,25.07
2017-10-13T08:42:02.448Z,25.16
2017-10-13T08:43:02.379Z,25.34
2017-10-13T08:44:02.309Z,25.37
2017-10-13T08:45:02.235Z,25.59
2017-10-13T08:46:02.171Z,25.71
2017-10-13T08:47:02.100Z,25.89
2017-10-13T08:48:02.052Z,25.86
2017-10-13T08:49:01.965Z,26.02
2017-10-13T08:50:01.899Z,26.05
2017-10-13T08:51:01.851Z,26.11
2017-10-13T08:52:01.762Z,26.36
2017-10-13T08:53:01.696Z,26.37
2017-10-13T08:54:01.625Z,26.46
2017-10-13T08:55:01.559Z,26.54
2017-10-13T08:56:01.493Z,26.54
2017-10-13T08:57:01.422Z,26.74
2017-10-13T08:58:01.350Z,26.84
2017-10-13T08:59:01.283Z,26.64
2017-10-13T09:00:01.223Z,26.89
2017-10-13T09:01:01.153Z,26.86
2017-10-13T09:02:01.086Z,27.13
2017-10-13T09:03:01.014Z,26.57
2017-10-13T09:04:00.949Z,26.80
2017-10-13T09:05:00.878Z,27.26
2017-10-13T09:06:00.810Z,27.33
2017-10-13T09:07:00.755Z,27.13
2017-10-13T09:08:00.686Z,27.09
2017-10-13T09:09:00.612Z,27.31
2017-10-13T09:10:00.547Z,27.38
2017-10-13T09:11:00.468Z,27.46
2017-10-13T09:12:00.401Z,27.69
2017-10-13T09:13:00.332Z,27.79
2017-10-13T09:14:00.277Z,27.73
2017-10-13T09:15:00.195Z,27.73
2017-10-13T09:16:00.136Z,27.98
2017-10-13T09:17:00.088Z,27.88
2017-10-13T09:17:59.998Z,28.14
2017-10-13T09:18:59.934Z,27.94
2017-10-13T09:19:59.862Z,28.14
2017-10-13T09:20:59.799Z,28.03
2017-10-13T09:21:59.731Z,28.22
2017-10-13T09:22:59.661Z,27.95
2017-10-13T09:23:59.598Z,27.95
2017-10-13T09:24:59.530Z,28.21
2017-10-13T09:25:59.462Z,28.65
2017-10-13T09:26:59.401Z,28.58
2017-10-13T09:27:59.329Z,28.43
2017-10-13T09:28:59.267Z,28.40
2017-10-13T09:29:59.196Z,28.23
2017-10-13T09:30:59.127Z,28.68
2017-10-13T09:31:59.094Z,28.95
2017-10-13T09:32:58.989Z,29.13
2017-10-13T09:33:58.927Z,29.22
2017-10-13T09:34:58.871Z,28.90
2017-10-13T09:35:58.790Z,29.01
2017-10-13T09:36:58.725Z,29.34
2017-10-13T09:37:58.660Z,29.45
2017-10-13T09:38:58.586Z,29.37
2017-10-13T09:39:58.530Z,28.91
2017-10-13T09:40:58.455Z,29.33
2017-10-13T09:41:58.392Z,29.23
2017-10-13T09:42:58.324Z,29.06
2017-10-13T09:43:58.263Z,29.34
2017-10-13T09:44:58.187Z,29.65
2017-10-13T09:45:58.120Z,29.93
2017-10-13T09:46:58.051Z,29.96
2017-10-13T09:47:57.986Z,29.87
2017-10-13T09:48:57.920Z,29.89
2017-10-13T09:49:57.850Z,29.68
2017-10-13T09:50:57.783Z,29.50
2017-10-13T09:51:57.718Z,29.45
2017-10-13T09:52:57.651Z,29.99
2017-10-13T09:53:57.593Z,30.15
2017-10-13T09:54:57.508Z,30.18
2017-10-13T09:55:57.472Z,29.92
2017-10-13T09:56:57.373Z,29.77
2017-10-13T09:57:57.306Z,29.75
2017-10-13T09:58:57.232Z,29.79
2017-10-13T09:59:57.181Z,29.47
2017-10-13T10:00:57.098Z,29.33
2017-10-13T10:01:57.033Z,29.56
2017-10-13T10:02:56.956Z,29.70
2017-10-13T10:03:56.892Z,29.40
2017-10-13T10:04:56.827Z,29.77
2017-10-13T10:05:56.751Z,29.63
2017-10-13T10:06:56.674Z,29.33
2017-10-13T10:07:56.617Z,29.29
2017-10-13T10:08:56.540Z,29.41
2017-10-13T10:09:56.469Z,28.90
2017-10-13T10:10:56.400Z,29.41
2017-10-13T10:11:56.349Z,29.55
2017-10-13T10:12:56.260Z,29.77
2017-10-13T10:13:56.184Z,29.19
2017-10-13T10:14:56.116Z,28.32
2017-10-13T10:15:56.047Z,28.93
2017-10-13T10:16:55.976Z,29.16
2017-10-13T10:17:55.902Z,29.43
2017-10-13T10:18:55.836Z,29.50
2017-10-13T10:19:55.763Z,29.47
2017-10-13T10:20:55.693Z,29.37
2017-10-13T10:21:55.628Z,29.34
2017-10-13T10:22:55.555Z,29.56
2017-10-13T10:23:55.482Z,29.44
2017-10-13T10:24:55.410Z,28.97
2017-10-13T10:25:55.342Z,28.91
2017-10-13T10:26:55.271Z,29.03
2017-10-13T10:27:55.198Z,29.11
2017-10-13T10:28:55.126Z,29.22
2017-10-13T10:29:55.066Z,29.22
2017-10-13T10:30:54.986Z,29.04
2017-10-13T10:31:54.916Z,29.00
2017-10-13T10:32:54.849Z,29.18
2017-10-13T10:33:54.777Z,29.25
2017-10-13T10:34:54.704Z,29.08
2017-10-13T10:35:54.638Z,29.03
2017-10-13T10:36:54.570Z,28.91
2017-10-13T10:37:54.503Z,28.70
2017-10-13T10:38:54.423Z,28.68
2017-10-13T10:39:54.376Z,28.85
2017-10-13T10:40:54.282Z,28.87
2017-10-13T10:41:54.217Z,28.91
2017-10-13T10:42:54.157Z,29.07
2017-10-13T10:43:54.086Z,28.95
2017-10-13T10:44:54.009Z,28.93
2017-10-13T10:45:53.936Z,28.70
2017-10-13T10:46:53.870Z,28.56
2017-10-13T10:47:53.802Z,28.38
2017-10-13T10:48:53.725Z,28.46
2017-10-13T10:49:53.664Z,28.21
2017-10-13T10:50:53.585Z,28.19
2017-10-13T10:51:53.522Z,28.56
2017-10-13T10:52:53.443Z,28.51
2017-10-13T10:53:53.396Z,28.54
2017-10-13T10:54:53.309Z,28.70
2017-10-13T10:55:53.247Z,28.65
2017-10-13T10:56:53.183Z,28.65
2017-10-13T10:57:53.100Z,28.53
2017-10-13T10:58:53.032Z,28.41
2017-10-13T10:59:52.967Z,28.56
2017-10-13T11:00:52.898Z,28.58
2017-10-13T11:01:52.834Z,28.44
2017-10-13T11:02:52.768Z,28.47
2017-10-13T11:03:52.707Z,28.41
2017-10-13T11:04:52.628Z,28.26
2017-10-13T11:05:52.561Z,27.57
2017-10-13T11:06:52.497Z,27.33
2017-10-13T11:07:52.434Z,27.94
2017-10-13T11:08:52.366Z,28.41
2017-10-13T11:09:52.301Z,28.06
2017-10-13T11:10:52.231Z,28.22
2017-10-13T11:11:52.197Z,28.14
2017-10-13T11:12:52.109Z,27.88
2017-10-13T11:13:52.041Z,28.11
2017-10-13T11:14:51.977Z,27.82
2017-10-13T11:15:51.910Z,27.38
2017-10-13T11:16:51.854Z,27.48
2017-10-13T11:17:51.791Z,27.26
2017-10-13T11:18:51.716Z,27.54
2017-10-13T11:19:51.673Z,27.33
2017-10-13T11:20:51.594Z,27.32
2017-10-13T11:21:51.527Z,27.02
2017-10-13T11:22:51.453Z,27.05
2017-10-13T11:23:51.391Z,26.77
2017-10-13T11:24:51.330Z,27.31
2017-10-13T11:25:51.264Z,26.81
2017-10-13T11:26:51.214Z,27.01
2017-10-13T11:27:51.152Z,26.65
2017-10-13T11:28:51.067Z,26.73
2017-10-13T11:29:50.988Z,26.94
2017-10-13T11:30:50.927Z,27.17
2017-10-13T11:31:50.857Z,27.11
2017-10-13T11:32:50.786Z,26.92
2017-10-13T11:33:50.720Z,27.41
2017-10-13T11:34:50.646Z,27.04
2017-10-13T11:35:50.584Z,27.09
2017-10-13T11:36:50.513Z,26.57
2017-10-13T11:37:50.466Z,26.54
2017-10-13T11:38:50.369Z,26.86
2017-10-13T11:39:50.295Z,26.87
2017-10-13T11:40:50.227Z,27.09
2017-10-13T11:41:50.153Z,26.74
2017-10-13T11:42:50.080Z,26.69
2017-10-13T11:43:50.009Z,26.55
2017-10-13T11:44:49.941Z,27.29
2017-10-13T11:45:49.866Z,27.46
2017-10-13T11:46:49.802Z,26.95
2017-10-13T11:47:49.719Z,27.26
2017-10-13T11:48:49.649Z,27.46
2017-10-13T11:49:49.572Z,27.67
2017-10-13T11:50:49.530Z,27.74
2017-10-13T11:51:49.425Z,27.58
2017-10-13T11:52:49.359Z,27.69
2017-10-13T11:53:49.278Z,27.35
2017-10-13T11:54:49.206Z,27.14
2017-10-13T11:55:49.163Z,26.92
2017-10-13T11:56:49.065Z,27.21
2017-10-13T11:57:48.994Z,27.10
2017-10-13T11:58:48.913Z,26.95
2017-10-13T11:59:48.851Z,27.21
2017-10-13T12:00:48.771Z,27.20
2017-10-13T12:01:48.704Z,27.24
2017-10-13T12:02:48.626Z,27.33
2017-10-13T12:03:48.552Z,27.39
2017-10-13T12:04:48.488Z,27.31
2017-10-13T12:05:48.410Z,27.29
2017-10-13T12:06:48.332Z,27.23
2017-10-13T12:07:48.264Z,27.16
2017-10-13T12:08:48.214Z,27.13
2017-10-13T12:09:48.120Z,27.14
2017-10-13T12:10:48.050Z,27.13
2017-10-13T12:11:47.980Z,27.04
2017-10-13T12:12:47.899Z,27.01
2017-10-13T12:13:47.837Z,26.76
2017-10-13T12:14:47.755Z,26.40
2017-10-13T12:15:47.680Z,26.57
2017-10-13T12:16:47.606Z,26.27
2017-10-13T12:17:47.545Z,26.20
2017-10-13T12:18:47.466Z,26.36
2017-10-13T12:19:47.393Z,26.54
2017-10-13T12:20:47.313Z,26.52
2017-10-13T12:21:47.244Z,26.54
2017-10-13T12:22:47.171Z,26.37
2017-10-13T12:23:47.097Z,26.37
2017-10-13T12:24:47.023Z,26.01
2017-10-13T12:25:46.952Z,25.72
2017-10-13T12:26:46.876Z,25.74
2017-10-13T12:27:46.808Z,25.44
2017-10-13T12:28:46.731Z,25.34
2017-10-13T12:29:46.662Z,24.85
2017-10-13T12:30:46.596Z,25.17
2017-10-13T12:31:46.515Z,25.17
2017-10-13T12:32:46.431Z,25.44
2017-10-13T12:33:46.355Z,25.42
2017-10-13T12:34:46.287Z,25.30
2017-10-13T12:35:46.217Z,25.27
2017-10-13T12:36:46.135Z,25.39
2017-10-13T12:37:46.065Z,25.49
2017-10-13T12:38:45.995Z,25.53
2017-10-13T12:39:45.910Z,25.43
2017-10-13T12:40:45.845Z,25.49
2017-10-13T12:41:45.766Z,25.44
2017-10-13T12:42:45.686Z,25.53
2017-10-13T12:43:45.619Z,25.54
2017-10-13T12:44:45.547Z,25.47
2017-10-13T12:45:45.476Z,25.56
2017-10-13T12:46:45.407Z,25.42
2017-10-13T12:47:45.327Z,25.25
2017-10-13T12:48:45.245Z,25.10
2017-10-13T12:49:45.176Z,25.12
2017-10-13T12:50:45.102Z,25.13
2017-10-13T12:51:45.028Z,25.25